Time;durP1;ratioP1;P1;durP2;ratioP2;P2;SDS_P1;SDS_P2;PMS_P1;PMS_P2;Temp;Humidity;BMP_temperature;BMP_pressure;BME280_temperature;BME280_humidity;BME280_pressure;Samples;Min_cycle;Max_cycle;Signal;HPM_P1;HPM_P2
2023/04/17 00:00:14;;;;;;;44.43;26.63;;;;;;;-145.18;100.00;60484.78;5010659;28;20065;-65
2023/04/17 00:02:39;;;;;;;47.23;27.77;;;;;;;-145.18;100.00;60484.78;5010883;28;20057;-65
2023/04/17 00:05:09;;;;;;;48.03;26.97;;;;;;;-145.18;100.00;60484.78;5011027;28;20037;-66
2023/04/17 00:07:40;;;;;;;50.87;28.17;;;;;;;-145.18;100.00;60484.78;5004069;28;20052;-66
2023/04/17 00:10:07;;;;;;;49.97;27.93;;;;;;;-145.18;100.00;60484.78;5020721;28;20025;-66
2023/04/17 00:12:33;;;;;;;47.60;27.57;;;;;;;-145.18;100.00;60484.78;5016498;28;20504;-66
2023/04/17 00:14:59;;;;;;;51.00;28.70;;;;;;;-145.18;100.00;60484.78;5014714;28;20061;-65
2023/04/17 00:17:24;;;;;;;50.93;29.20;;;;;;;-145.18;100.00;60484.78;5012631;28;20086;-66
2023/04/17 00:19:50;;;;;;;52.23;29.13;;;;;;;-145.18;100.00;60484.78;5014150;28;20072;-65
2023/04/17 00:22:15;;;;;;;56.67;30.27;;;;;;;-145.18;100.00;60484.78;5008105;28;21730;-66
2023/04/17 00:24:41;;;;;;;48.30;28.57;;;;;;;-145.18;100.00;60484.78;5022281;28;20026;-66
2023/04/17 00:27:06;;;;;;;60.10;31.23;;;;;;;-145.18;100.00;60484.78;5014219;28;20038;-66
2023/04/17 00:29:33;;;;;;;58.50;31.07;;;;;;;-145.18;100.00;60484.78;5012263;28;20079;-66
2023/04/17 00:31:58;;;;;;;59.80;30.90;;;;;;;-145.18;100.00;60484.78;5022336;28;20493;-66
2023/04/17 00:34:24;;;;;;;62.07;32.27;;;;;;;-145.18;100.00;60484.78;5016071;28;20030;-66
2023/04/17 00:36:50;;;;;;;60.93;32.67;;;;;;;-145.18;100.00;60484.78;5011943;28;20038;-66
2023/04/17 00:39:16;;;;;;;60.80;32.70;;;;;;;-145.18;100.00;60484.78;5012793;28;20084;-66
2023/04/17 00:41:41;;;;;;;65.80;33.63;;;;;;;-145.18;100.00;60484.78;5011165;28;20021;-66
2023/04/17 00:44:07;;;;;;;64.07;32.83;;;;;;;-145.18;100.00;60484.78;5013801;28;20034;-66
2023/04/17 00:46:33;;;;;;;71.43;33.87;;;;;;;-145.18;100.00;60484.78;5011641;28;20054;-66
2023/04/17 00:49:00;;;;;;;65.83;33.70;;;;;;;-145.18;100.00;60484.78;5013447;28;20378;-66
2023/04/17 00:51:26;;;;;;;56.90;32.10;;;;;;;-145.18;100.00;60484.78;5004838;28;20030;-66
2023/04/17 00:53:52;;;;;;;61.10;33.07;;;;;;;-145.18;100.00;60484.78;5015112;28;20405;-66
2023/04/17 00:56:18;;;;;;;57.50;31.63;;;;;;;-145.18;100.00;60484.78;5013720;28;20022;-66
2023/04/17 00:58:43;;;;;;;55.30;31.53;;;;;;;-145.18;100.00;60484.78;5016260;28;20486;-66
2023/04/17 01:04:30;;;;;;;55.88;30.20;;;;;;;-145.18;100.00;60484.78;5009701;28;20073;-61
2023/04/17 01:06:58;;;;;;;54.90;30.77;;;;;;;-145.18;100.00;60484.78;5011175;28;20030;-61
2023/04/17 01:09:23;;;;;;;59.57;30.17;;;;;;;-145.18;100.00;60484.78;5012280;28;20509;-61
2023/04/17 01:11:49;;;;;;;51.77;29.80;;;;;;;-145.18;100.00;60484.78;5013006;28;20034;-61
2023/04/17 01:14:14;;;;;;;54.83;30.17;;;;;;;-145.18;100.00;60484.78;5009797;28;20037;-61
2023/04/17 01:16:40;;;;;;;51.77;29.13;;;;;;;-145.18;100.00;60484.78;5013603;28;20367;-61
2023/04/17 01:19:07;;;;;;;50.43;28.27;;;;;;;-145.18;100.00;60484.78;5009406;28;20472;-61
2023/04/17 01:21:33;;;;;;;51.97;28.10;;;;;;;-145.18;100.00;60484.78;5009733;28;20038;-61
2023/04/17 01:24:02;;;;;;;48.33;28.30;;;;;;;-145.18;100.00;60484.78;5009018;28;20036;-61
2023/04/17 01:26:30;;;;;;;47.23;28.87;;;;;;;-145.18;100.00;60484.78;5013517;28;20470;-61
2023/04/17 01:28:57;;;;;;;47.30;27.97;;;;;;;-145.18;100.00;60484.78;5011821;28;20470;-61
2023/04/17 01:31:24;;;;;;;50.63;28.63;;;;;;;-145.18;100.00;60484.78;5011769;28;20045;-61
2023/04/17 01:33:50;;;;;;;49.17;28.83;;;;;;;-145.18;100.00;60484.78;5011204;28;20389;-61
2023/04/17 01:36:16;;;;;;;50.50;27.37;;;;;;;-145.18;100.00;60484.78;5011751;28;20423;-61
2023/04/17 01:38:41;;;;;;;45.03;26.30;;;;;;;-145.18;100.00;60484.78;5012940;28;20044;-61
2023/04/17 01:41:08;;;;;;;49.30;28.10;;;;;;;-145.18;100.00;60484.78;5012408;28;20030;-61
2023/04/17 01:43:45;;;;;;;44.57;26.37;;;;;;;-145.18;100.00;60484.78;5012491;28;20045;-61
2023/04/17 01:46:11;;;;;;;46.47;26.77;;;;;;;-145.18;100.00;60484.78;5017106;28;21286;-61
2023/04/17 01:48:36;;;;;;;47.43;26.20;;;;;;;-145.18;100.00;60484.78;5011683;28;20103;-61
2023/04/17 01:51:02;;;;;;;46.63;26.93;;;;;;;-145.18;100.00;60484.78;5011804;28;20029;-61
2023/04/17 01:53:32;;;;;;;43.20;25.80;;;;;;;-145.18;100.00;60484.78;5007618;28;20117;-61
2023/04/17 01:55:59;;;;;;;44.10;26.00;;;;;;;-145.18;100.00;60484.78;5016455;28;20484;-61
2023/04/17 01:58:24;;;;;;;44.37;26.33;;;;;;;-145.18;100.00;60484.78;5011801;28;20030;-61
2023/04/17 02:00:50;;;;;;;48.40;26.77;;;;;;;-145.18;100.00;60484.78;5004304;28;20391;-61
2023/04/17 02:03:16;;;;;;;48.53;26.93;;;;;;;-145.18;100.00;60484.78;5014051;28;20062;-61
2023/04/17 02:05:46;;;;;;;47.97;28.10;;;;;;;-145.18;100.00;60484.78;5011893;28;20104;-61
2023/04/17 02:08:12;;;;;;;46.73;26.53;;;;;;;-145.18;100.00;60484.78;5004358;28;20022;-61
2023/04/17 02:10:37;;;;;;;52.83;28.30;;;;;;;-145.18;100.00;60484.78;5007613;28;20030;-63
2023/04/17 02:13:03;;;;;;;45.83;27.50;;;;;;;-145.18;100.00;60484.78;5010637;28;20030;-61
2023/04/17 02:15:28;;;;;;;46.60;27.60;;;;;;;-145.18;100.00;60484.78;5013718;28;20025;-62
2023/04/17 02:17:54;;;;;;;50.20;28.40;;;;;;;-145.18;100.00;60484.78;5011768;28;20029;-61
2023/04/17 02:20:20;;;;;;;46.70;27.30;;;;;;;-145.18;100.00;60484.78;5009331;28;20076;-63
2023/04/17 02:22:45;;;;;;;50.17;29.97;;;;;;;-145.18;100.00;60484.78;5008426;28;20046;-61
2023/04/17 02:25:11;;;;;;;50.47;28.57;;;;;;;-145.18;100.00;60484.78;5012873;28;20026;-62
2023/04/17 02:27:36;;;;;;;50.30;28.23;;;;;;;-145.18;100.00;60484.78;5011271;28;20032;-62
2023/04/17 02:30:02;;;;;;;49.50;27.83;;;;;;;-145.18;100.00;60484.78;5012057;28;20109;-62
2023/04/17 02:32:28;;;;;;;53.60;29.93;;;;;;;-145.18;100.00;60484.78;5013025;28;20037;-62
2023/04/17 02:34:53;;;;;;;48.60;27.80;;;;;;;-145.18;100.00;60484.78;5011939;28;20414;-63
2023/04/17 02:37:19;;;;;;;51.43;28.60;;;;;;;-145.18;100.00;60484.78;5012738;28;20037;-63
2023/04/17 02:39:45;;;;;;;54.00;29.27;;;;;;;-145.18;100.00;60484.78;5010713;28;20040;-64
2023/04/17 02:42:11;;;;;;;53.00;30.37;;;;;;;-145.18;100.00;60484.78;5011709;28;20030;-63
2023/04/17 02:44:38;;;;;;;52.47;29.93;;;;;;;-145.18;100.00;60484.78;5012408;28;20025;-65
2023/04/17 02:47:04;;;;;;;56.07;31.03;;;;;;;-145.18;100.00;60484.78;5013253;28;20133;-66
2023/04/17 02:49:30;;;;;;;54.00;29.77;;;;;;;-145.18;100.00;60484.78;5012044;28;20824;-65
2023/04/17 02:51:55;;;;;;;60.57;31.27;;;;;;;-145.18;100.00;60484.78;5012816;28;20032;-65
2023/04/17 02:54:21;;;;;;;61.20;30.90;;;;;;;-145.18;100.00;60484.78;5021045;28;20512;-65
2023/04/17 02:56:46;;;;;;;60.50;32.07;;;;;;;-145.18;100.00;60484.78;5019972;28;20053;-65
2023/04/17 02:59:12;;;;;;;56.00;30.70;;;;;;;-145.18;100.00;60484.78;5011388;28;20057;-65
2023/04/17 03:01:39;;;;;;;56.70;31.90;;;;;;;-145.18;100.00;60484.78;5007018;28;20028;-65
2023/04/17 03:04:05;;;;;;;56.87;31.57;;;;;;;-145.18;100.00;60484.78;5011021;28;20045;-65
2023/04/17 03:06:30;;;;;;;64.53;32.33;;;;;;;-145.18;100.00;60484.78;5008985;28;20033;-65
2023/04/17 03:08:56;;;;;;;58.50;31.60;;;;;;;-145.18;100.00;60484.78;5012468;28;20029;-64
2023/04/17 03:11:21;;;;;;;59.07;31.47;;;;;;;-145.18;100.00;60484.78;5010881;28;20645;-64
2023/04/17 03:13:47;;;;;;;58.57;32.23;;;;;;;-145.18;100.00;60484.78;5010800;28;20091;-65
2023/04/17 03:16:13;;;;;;;62.70;32.83;;;;;;;-145.18;100.00;60484.78;5010840;28;20022;-64
2023/04/17 03:18:42;;;;;;;61.90;33.07;;;;;;;-145.18;100.00;60484.78;5007409;28;20034;-65
2023/04/17 03:21:07;;;;;;;65.80;32.30;;;;;;;-145.18;100.00;60484.78;5012228;28;20030;-65
2023/04/17 03:23:33;;;;;;;61.27;33.53;;;;;;;-145.18;100.00;60484.78;5012550;28;20056;-65
2023/04/17 03:25:59;;;;;;;58.53;32.53;;;;;;;-145.18;100.00;60484.78;5012006;28;20554;-64
2023/04/17 03:28:24;;;;;;;64.00;32.57;;;;;;;-145.18;100.00;60484.78;5018564;28;20061;-65
2023/04/17 03:30:50;;;;;;;60.87;31.07;;;;;;;-145.18;100.00;60484.78;5011235;28;20466;-65
2023/04/17 03:33:16;;;;;;;61.80;31.70;;;;;;;-145.18;100.00;60484.78;5010414;28;20034;-64
2023/04/17 03:35:43;;;;;;;57.77;32.37;;;;;;;-145.18;100.00;60484.78;5012551;28;20033;-64
2023/04/17 03:38:08;;;;;;;55.63;31.67;;;;;;;-145.18;100.00;60484.78;5010267;28;20029;-65
2023/04/17 03:40:34;;;;;;;62.50;31.37;;;;;;;-145.18;100.00;60484.78;5012357;28;20021;-65
2023/04/17 03:43:00;;;;;;;56.37;31.20;;;;;;;-145.18;100.00;60484.78;5011544;28;20021;-65
2023/04/17 03:45:25;;;;;;;57.77;31.27;;;;;;;-145.18;100.00;60484.78;5012866;28;20053;-65
2023/04/17 03:47:51;;;;;;;56.10;30.63;;;;;;;-145.18;100.00;60484.78;5015994;28;20525;-64
2023/04/17 03:50:16;;;;;;;64.57;31.97;;;;;;;-145.18;100.00;60484.78;5012462;28;20033;-64
2023/04/17 03:52:42;;;;;;;59.20;31.57;;;;;;;-145.18;100.00;60484.78;5015851;28;20038;-65
2023/04/17 03:55:09;;;;;;;57.40;32.43;;;;;;;-145.18;100.00;60484.78;5015512;28;20022;-67
2023/04/17 03:57:34;;;;;;;53.47;30.50;;;;;;;-145.18;100.00;60484.78;5015747;28;20151;-67
2023/04/17 04:00:00;;;;;;;63.63;32.50;;;;;;;-145.18;100.00;60484.78;5034707;28;20239;-67
2023/04/17 04:02:28;;;;;;;57.63;29.80;;;;;;;-145.18;100.00;60484.78;5015565;28;20153;-65
2023/04/17 04:04:54;;;;;;;59.27;30.70;;;;;;;-145.18;100.00;60484.78;5013122;28;20030;-67
2023/04/17 04:07:20;;;;;;;56.87;30.87;;;;;;;-145.18;100.00;60484.78;5015918;28;20025;-67
2023/04/17 04:09:45;;;;;;;60.33;32.50;;;;;;;-145.18;100.00;60484.78;5015274;28;20478;-65
2023/04/17 04:12:11;;;;;;;57.83;31.70;;;;;;;-145.18;100.00;60484.78;5011111;28;20033;-65
2023/04/17 04:14:36;;;;;;;65.07;32.83;;;;;;;-145.18;100.00;60484.78;5012288;28;20041;-65
2023/04/17 04:17:02;;;;;;;63.47;32.27;;;;;;;-145.18;100.00;60484.78;5012793;28;20046;-65
2023/04/17 04:19:27;;;;;;;62.97;32.97;;;;;;;-145.18;100.00;60484.78;5012090;28;20022;-65
2023/04/17 04:21:53;;;;;;;63.40;32.93;;;;;;;-145.18;100.00;60484.78;5014895;28;20032;-65
2023/04/17 04:24:19;;;;;;;58.43;32.20;;;;;;;-145.18;100.00;60484.78;5028335;28;20038;-64
2023/04/17 04:26:48;;;;;;;60.27;32.67;;;;;;;-145.18;100.00;60484.78;5014221;28;20394;-65
2023/04/17 04:29:14;;;;;;;57.87;32.03;;;;;;;-145.18;100.00;60484.78;5014327;28;20017;-66
2023/04/17 04:31:40;;;;;;;64.10;33.80;;;;;;;-145.18;100.00;60484.78;5012901;28;20022;-65
2023/04/17 04:34:06;;;;;;;62.50;32.83;;;;;;;-145.18;100.00;60484.78;5013111;28;20116;-65
2023/04/17 04:36:34;;;;;;;60.43;33.13;;;;;;;-145.18;100.00;60484.78;5015249;28;20025;-65
2023/04/17 04:39:01;;;;;;;66.17;33.43;;;;;;;-145.18;100.00;60484.78;5014293;28;20029;-68
2023/04/17 04:41:28;;;;;;;57.13;32.13;;;;;;;-145.18;100.00;60484.78;5011264;28;20171;-65
2023/04/17 04:43:54;;;;;;;59.00;32.93;;;;;;;-145.18;100.00;60484.78;5013531;28;20138;-65
2023/04/17 04:46:19;;;;;;;59.70;32.07;;;;;;;-145.18;100.00;60484.78;5014256;28;20140;-65
2023/04/17 04:48:45;;;;;;;62.83;33.10;;;;;;;-145.18;100.00;60484.78;5014142;28;20088;-65
2023/04/17 04:51:10;;;;;;;60.17;32.30;;;;;;;-145.18;100.00;60484.78;5014953;28;20026;-67
2023/04/17 04:53:36;;;;;;;62.27;33.40;;;;;;;-145.18;100.00;60484.78;5014894;28;20033;-67
2023/04/17 04:56:01;;;;;;;60.70;32.73;;;;;;;-145.18;100.00;60484.78;5013982;28;20022;-68
2023/04/17 04:58:28;;;;;;;58.23;32.90;;;;;;;-145.18;100.00;60484.78;5013506;28;20076;-65
2023/04/17 05:00:54;;;;;;;59.33;33.03;;;;;;;-145.18;100.00;60484.78;5012686;28;20101;-65
2023/04/17 05:03:21;;;;;;;60.07;32.47;;;;;;;-145.18;100.00;60484.78;5012501;28;20058;-65
2023/04/17 05:05:49;;;;;;;59.27;33.20;;;;;;;-145.18;100.00;60484.78;5012922;28;20490;-66
2023/04/17 05:08:15;;;;;;;61.73;31.93;;;;;;;-145.18;100.00;60484.78;5014304;28;20355;-65
2023/04/17 05:10:40;;;;;;;58.00;32.23;;;;;;;-145.18;100.00;60484.78;5014812;28;20041;-65
2023/04/17 05:13:06;;;;;;;55.27;31.57;;;;;;;-145.18;100.00;60484.78;5013717;28;20040;-65
2023/04/17 05:15:31;;;;;;;61.87;32.33;;;;;;;-145.18;100.00;60484.78;5020599;28;20415;-65
2023/04/17 05:17:57;;;;;;;57.40;31.90;;;;;;;-145.18;100.00;60484.78;5012895;28;20056;-65
2023/04/17 05:20:22;;;;;;;59.43;30.90;;;;;;;-145.18;100.00;60484.78;5014504;28;20105;-65
2023/04/17 05:22:48;;;;;;;54.13;31.00;;;;;;;-145.18;100.00;60484.78;5012646;28;20022;-65
2023/04/17 05:25:15;;;;;;;59.33;31.60;;;;;;;-145.18;100.00;60484.78;5009299;28;20037;-65
2023/04/17 05:27:40;;;;;;;53.60;30.00;;;;;;;-145.18;100.00;60484.78;5008106;28;20091;-65
2023/04/17 05:30:07;;;;;;;54.67;29.60;;;;;;;-145.18;100.00;60484.78;5008045;28;21664;-65
2023/04/17 05:32:34;;;;;;;49.93;29.03;;;;;;;-145.18;100.00;60484.78;5009123;28;20033;-65
2023/04/17 05:34:59;;;;;;;51.63;28.50;;;;;;;-145.18;100.00;60484.78;5011102;28;20038;-65
2023/04/17 05:37:25;;;;;;;52.57;29.60;;;;;;;-145.18;100.00;60484.78;5014124;28;20593;-66
2023/04/17 05:39:51;;;;;;;49.93;29.23;;;;;;;-145.18;100.00;60484.78;5013959;28;20018;-66
2023/04/17 05:42:16;;;;;;;52.50;28.27;;;;;;;-145.18;100.00;60484.78;5013972;28;20026;-66
2023/04/17 05:44:42;;;;;;;50.40;28.50;;;;;;;-145.18;100.00;60484.78;5012313;28;20033;-65
2023/04/17 05:47:07;;;;;;;49.77;29.13;;;;;;;-145.18;100.00;60484.78;5012182;28;20466;-65
2023/04/17 05:49:33;;;;;;;47.23;27.50;;;;;;;-145.18;100.00;60484.78;5014153;28;20045;-65
2023/04/17 05:51:58;;;;;;;49.87;28.00;;;;;;;-145.18;100.00;60484.78;5014141;28;20036;-65
2023/04/17 05:54:24;;;;;;;46.33;27.60;;;;;;;-145.18;100.00;60484.78;5014079;28;20030;-65
2023/04/17 05:56:50;;;;;;;48.97;27.63;;;;;;;-145.18;100.00;60484.78;5012639;28;20026;-65
2023/04/17 05:59:16;;;;;;;45.63;26.03;;;;;;;-145.18;100.00;60484.78;5012524;28;20029;-65
2023/04/17 06:01:42;;;;;;;46.00;27.40;;;;;;;-145.18;100.00;60484.78;5006922;28;20493;-65
2023/04/17 06:04:07;;;;;;;46.57;26.87;;;;;;;-145.18;100.00;60484.78;5024761;28;20042;-68
2023/04/17 06:06:33;;;;;;;46.10;25.83;;;;;;;-145.18;100.00;60484.78;5030731;28;20025;-67
2023/04/17 06:08:59;;;;;;;45.37;26.53;;;;;;;-145.18;100.00;60484.78;5023116;28;20057;-67
2023/04/17 06:11:24;;;;;;;47.03;26.83;;;;;;;-145.18;100.00;60484.78;5013716;28;20382;-67
2023/04/17 06:13:50;;;;;;;43.47;27.03;;;;;;;-145.18;100.00;60484.78;5011982;28;20466;-67
2023/04/17 06:16:16;;;;;;;41.93;25.97;;;;;;;-145.18;100.00;60484.78;5022074;28;20052;-67
2023/04/17 06:18:42;;;;;;;45.20;25.63;;;;;;;-145.18;100.00;60484.78;5031851;28;20029;-67
2023/04/17 06:21:07;;;;;;;43.87;26.37;;;;;;;-145.18;100.00;60484.78;5019569;28;20026;-67
2023/04/17 06:23:33;;;;;;;54.43;26.83;;;;;;;-145.18;100.00;60484.78;5012688;28;20061;-67
2023/04/17 06:25:58;;;;;;;48.80;26.70;;;;;;;-145.18;100.00;60484.78;5013670;28;20108;-67
2023/04/17 06:28:24;;;;;;;47.13;24.87;;;;;;;-145.18;100.00;60484.78;5013214;28;20022;-67
2023/04/17 06:30:49;;;;;;;41.63;25.63;;;;;;;-145.18;100.00;60484.78;5012891;28;20052;-67
2023/04/17 06:33:15;;;;;;;45.93;26.17;;;;;;;-145.18;100.00;60484.78;5029839;28;20056;-67
2023/04/17 06:35:40;;;;;;;40.57;25.33;;;;;;;-145.18;100.00;60484.78;5032113;28;20040;-67
2023/04/17 06:38:06;;;;;;;41.67;24.20;;;;;;;-145.18;100.00;60484.78;5019325;28;20030;-67
2023/04/17 06:40:32;;;;;;;37.47;23.17;;;;;;;-145.18;100.00;60484.78;5012365;28;20032;-67
2023/04/17 06:42:57;;;;;;;41.10;24.63;;;;;;;-145.18;100.00;60484.78;5011406;28;20018;-67
2023/04/17 06:45:23;;;;;;;42.20;24.17;;;;;;;-145.18;100.00;60484.78;5012995;28;20466;-66
2023/04/17 06:47:49;;;;;;;39.23;22.80;;;;;;;-145.18;100.00;60484.78;5012649;28;20029;-67
2023/04/17 06:50:15;;;;;;;37.37;23.90;;;;;;;-145.18;100.00;60484.78;5013771;28;20032;-67
2023/04/17 06:52:41;;;;;;;35.53;22.50;;;;;;;-145.18;100.00;60484.78;5012185;28;20496;-67
2023/04/17 06:55:07;;;;;;;42.97;24.43;;;;;;;-145.18;100.00;60484.78;5014248;28;20022;-67
2023/04/17 06:57:33;;;;;;;38.50;23.13;;;;;;;-145.18;100.00;60484.78;5012795;28;20110;-67
2023/04/17 06:59:58;;;;;;;38.13;22.30;;;;;;;-145.18;100.00;60484.78;5013134;28;20055;-67
2023/04/17 07:02:24;;;;;;;37.97;22.97;;;;;;;-145.18;100.00;60484.78;5009668;28;20511;-67
2023/04/17 07:04:49;;;;;;;42.93;23.90;;;;;;;-145.18;100.00;60484.78;5012468;28;20034;-68
2023/04/17 07:07:15;;;;;;;38.97;23.00;;;;;;;-145.18;100.00;60484.78;5012759;28;20105;-66
2023/04/17 07:09:41;;;;;;;39.67;24.47;;;;;;;-145.18;100.00;60484.78;5012906;28;20044;-66
2023/04/17 07:12:07;;;;;;;35.13;21.67;;;;;;;-145.18;100.00;60484.78;5012323;28;20490;-66
2023/04/17 07:14:34;;;;;;;35.97;21.90;;;;;;;-145.18;100.00;60484.78;5012552;28;20068;-66
2023/04/17 07:17:00;;;;;;;34.33;21.83;;;;;;;-145.18;100.00;60484.78;5010968;28;20492;-66
2023/04/17 07:19:25;;;;;;;35.00;20.80;;;;;;;-145.18;100.00;60484.78;5012983;28;20033;-67
2023/04/17 07:21:51;;;;;;;34.07;21.27;;;;;;;-145.18;100.00;60484.78;5014764;28;20009;-66
2023/04/17 07:24:16;;;;;;;35.03;22.43;;;;;;;-145.18;100.00;60484.78;5015812;28;20081;-67
2023/04/17 07:26:42;;;;;;;38.37;22.60;;;;;;;-145.18;100.00;60484.78;5015835;28;20032;-66
2023/04/17 07:29:08;;;;;;;35.27;22.03;;;;;;;-145.18;100.00;60484.78;5016531;28;20092;-66
2023/04/17 07:31:33;;;;;;;31.67;21.70;;;;;;;-145.18;100.00;60484.78;5014567;28;20033;-66
2023/04/17 07:33:59;;;;;;;32.40;21.23;;;;;;;-145.18;100.00;60484.78;5013455;28;20112;-67
2023/04/17 07:36:27;;;;;;;39.05;21.50;;;;;;;-145.18;100.00;60484.78;5016744;28;20059;-67
2023/04/17 07:38:52;;;;;;;39.65;22.10;;;;;;;-145.18;100.00;60484.78;5016442;28;20018;-67
2023/04/17 07:41:18;;;;;;;32.38;19.70;;;;;;;-145.18;100.00;60484.78;5016303;28;20033;-67
2023/04/17 07:43:43;;;;;;;31.60;20.48;;;;;;;-145.18;100.00;60484.78;5015911;28;20034;-67
2023/04/17 07:46:09;;;;;;;35.53;20.77;;;;;;;-145.18;100.00;60484.78;5014677;28;20026;-67
2023/04/17 07:48:34;;;;;;;30.00;18.15;;;;;;;-145.18;100.00;60484.78;5016253;28;20029;-65
2023/04/17 07:51:00;;;;;;;31.23;18.95;;;;;;;-145.18;100.00;60484.78;5013471;28;20026;-66
2023/04/17 07:53:27;;;;;;;29.92;19.08;;;;;;;-145.18;100.00;60484.78;5014665;28;20049;-66
2023/04/17 07:55:53;;;;;;;33.15;19.13;;;;;;;-145.18;100.00;60484.78;5016202;28;20045;-65
2023/04/17 07:58:19;;;;;;;32.63;19.30;;;;;;;-145.18;100.00;60484.78;5015820;28;20022;-65
2023/04/17 08:00:44;;;;;;;27.77;18.00;;;;;;;-145.18;100.00;60484.78;5014863;28;20140;-65
2023/04/17 08:03:12;;;;;;;29.15;17.35;;;;;;;-145.18;100.00;60484.78;5014897;28;20049;-65
2023/04/17 08:05:38;;;;;;;29.08;18.60;;;;;;;-145.18;100.00;60484.78;5016061;28;20029;-65
2023/04/17 08:08:04;;;;;;;28.27;18.95;;;;;;;-145.18;100.00;60484.78;5016189;28;20021;-66
2023/04/17 08:10:30;;;;;;;34.58;20.00;;;;;;;-145.18;100.00;60484.78;5014994;28;20113;-66
2023/04/17 08:12:55;;;;;;;29.52;19.02;;;;;;;-145.18;100.00;60484.78;5015048;28;20022;-66
2023/04/17 08:15:21;;;;;;;27.67;17.27;;;;;;;-145.18;100.00;60484.78;5016024;28;20466;-65
2023/04/17 08:17:47;;;;;;;30.33;19.13;;;;;;;-145.18;100.00;60484.78;5013821;28;20494;-65
2023/04/17 08:20:13;;;;;;;30.70;18.15;;;;;;;-145.18;100.00;60484.78;5011071;28;20033;-67
2023/04/17 08:22:42;;;;;;;27.20;17.52;;;;;;;-145.18;100.00;60484.78;5015855;28;20365;-67
2023/04/17 08:25:09;;;;;;;28.00;17.40;;;;;;;-145.18;100.00;60484.78;5015816;28;20447;-66
2023/04/17 08:27:36;;;;;;;23.88;15.07;;;;;;;-145.18;100.00;60484.78;5015447;28;20065;-66
2023/04/17 08:30:03;;;;;;;23.98;15.48;;;;;;;-145.18;100.00;60484.78;5021369;28;20033;-67
2023/04/17 08:32:29;;;;;;;27.08;16.38;;;;;;;-145.18;100.00;60484.78;5013773;28;20422;-67
2023/04/17 08:34:57;;;;;;;24.60;15.38;;;;;;;-145.18;100.00;60484.78;5011779;28;20022;-67
2023/04/17 08:37:22;;;;;;;23.77;15.40;;;;;;;-145.18;100.00;60484.78;5015392;28;20029;-66
2023/04/17 08:39:51;;;;;;;23.85;15.00;;;;;;;-145.18;100.00;60484.78;5010673;28;20025;-67
2023/04/17 08:42:16;;;;;;;22.80;14.18;;;;;;;-145.18;100.00;60484.78;5015209;28;20547;-68
2023/04/17 08:44:42;;;;;;;21.75;14.57;;;;;;;-145.18;100.00;60484.78;5027482;28;20021;-66
2023/04/17 08:47:08;;;;;;;20.40;13.85;;;;;;;-145.18;100.00;60484.78;5015435;28;20022;-67
2023/04/17 08:49:34;;;;;;;25.58;14.60;;;;;;;-145.18;100.00;60484.78;5014389;28;20029;-67
2023/04/17 08:52:06;;;;;;;22.13;15.05;;;;;;;-145.18;100.00;60484.78;5013578;28;20040;-67
2023/04/17 08:54:34;;;;;;;22.25;14.40;;;;;;;-145.18;100.00;60484.78;5023411;28;20386;-67
2023/04/17 08:57:05;;;;;;;24.83;15.43;;;;;;;-145.18;100.00;60484.78;5014950;28;20060;-68
2023/04/17 08:59:31;;;;;;;27.73;14.70;;;;;;;-145.18;100.00;60484.78;5014221;28;20029;-67
2023/04/17 09:02:04;;;;;;;18.73;12.40;;;;;;;-145.18;100.00;60484.78;5012095;28;20026;-67
2023/04/17 09:04:40;;;;;;;20.70;13.23;;;;;;;-145.18;100.00;60484.78;5014516;28;20038;-68
2023/04/17 09:07:08;;;;;;;22.48;13.25;;;;;;;-145.18;100.00;60484.78;5011732;28;20030;-67
2023/04/17 09:09:55;;;;;;;18.83;12.75;;;;;;;-145.18;100.00;60484.78;5008928;28;20049;-66
2023/04/17 09:12:22;;;;;;;18.25;11.07;;;;;;;-145.18;100.00;60484.78;5015129;28;20466;-67
2023/04/17 09:14:47;;;;;;;19.15;13.55;;;;;;;-145.18;100.00;60484.78;5014506;28;20021;-67
2023/04/17 09:17:16;;;;;;;20.73;13.07;;;;;;;-145.18;100.00;60484.78;5012276;28;20018;-67
2023/04/17 09:20:07;;;;;;;19.88;13.23;;;;;;;-145.18;100.00;60484.78;5012603;28;20118;-67
2023/04/17 09:22:34;;;;;;;18.70;12.50;;;;;;;-145.18;100.00;60484.78;5014671;28;20048;-67
2023/04/17 09:25:00;;;;;;;18.92;12.90;;;;;;;-145.18;100.00;60484.78;5021108;28;20033;-67
2023/04/17 09:27:27;;;;;;;14.93;10.23;;;;;;;-145.18;100.00;60484.78;5025290;28;20029;-66
2023/04/17 09:30:03;;;;;;;14.30;10.98;;;;;;;-145.18;100.00;60484.78;5013845;28;20382;-66
2023/04/17 09:32:30;;;;;;;15.73;9.80;;;;;;;-145.18;100.00;60484.78;5012395;28;20101;-67
2023/04/17 09:34:58;;;;;;;14.70;9.63;;;;;;;-145.18;100.00;60484.78;5014627;28;20133;-66
2023/04/17 09:37:24;;;;;;;14.98;9.82;;;;;;;-145.18;100.00;60484.78;5014287;28;20473;-67
2023/04/17 09:39:58;;;;;;;16.73;10.00;;;;;;;-145.18;100.00;60484.78;5010352;28;20048;-67
2023/04/17 09:42:24;;;;;;;18.95;10.10;;;;;;;-145.18;100.00;60484.78;5014448;28;20474;-67
2023/04/17 09:44:49;;;;;;;14.32;8.65;;;;;;;-145.18;100.00;60484.78;5013241;28;20104;-66
2023/04/17 09:47:18;;;;;;;14.95;8.38;;;;;;;-145.18;100.00;60484.78;5011964;28;20029;-67
2023/04/17 09:49:54;;;;;;;11.43;7.82;;;;;;;-145.18;100.00;60484.78;5013582;28;20502;-66
2023/04/17 09:52:22;;;;;;;13.02;8.63;;;;;;;-145.18;100.00;60484.78;5014050;28;20474;-67
2023/04/17 09:54:52;;;;;;;13.05;8.27;;;;;;;-145.18;100.00;60484.78;5013897;28;20037;-66
2023/04/17 09:57:18;;;;;;;12.85;8.35;;;;;;;-145.18;100.00;60484.78;5013285;28;20040;-66
2023/04/17 09:59:46;;;;;;;11.63;7.75;;;;;;;-145.18;100.00;60484.78;5014000;28;20021;-66
2023/04/17 10:02:13;;;;;;;15.20;8.82;;;;;;;-145.18;100.00;60484.78;5010348;28;20033;-66
2023/04/17 10:04:40;;;;;;;12.55;8.45;;;;;;;-145.18;100.00;60484.78;5013735;28;20029;-66
2023/04/17 10:07:06;;;;;;;14.73;9.00;;;;;;;-145.18;100.00;60484.78;5013437;28;20072;-67
2023/04/17 10:09:31;;;;;;;15.05;9.75;;;;;;;-145.18;100.00;60484.78;5013873;28;20048;-66
2023/04/17 10:11:58;;;;;;;15.18;9.45;;;;;;;-145.18;100.00;60484.78;5013946;28;20052;-66
2023/04/17 10:14:32;;;;;;;15.43;9.57;;;;;;;-145.18;100.00;60484.78;5013609;28;20053;-67
2023/04/17 10:16:58;;;;;;;14.75;9.65;;;;;;;-145.18;100.00;60484.78;5007773;28;20077;-67
2023/04/17 10:19:35;;;;;;;13.73;8.82;;;;;;;-145.18;100.00;60484.78;5008849;28;20022;-67
2023/04/17 10:22:40;;;;;;;14.10;9.13;;;;;;;-145.18;100.00;60484.78;5008245;28;20363;-67
2023/04/17 10:25:31;;;;;;;12.05;5.63;;;;;;;-145.18;100.00;60484.78;4933761;29;20031;-65
2023/04/17 10:28:00;;;;;;;;;;;;;;;-145.18;100.00;60484.78;4947123;29;20066;-67
2023/04/17 10:30:53;;;;;;;13.63;9.05;;;;;;;-145.18;100.00;60484.78;4943855;29;19918;-66
2023/04/17 10:33:21;;;;;;;14.07;7.93;;;;;;;-145.18;100.00;60484.78;4891702;29;20581;-66
2023/04/17 10:35:47;;;;;;;14.23;8.05;;;;;;;-145.18;100.00;60484.78;4891421;29;20044;-65
2023/04/17 10:38:15;;;;;;;16.30;9.77;;;;;;;-145.18;100.00;60484.78;4885890;29;20623;-66
2023/04/17 10:40:42;;;;;;;13.52;8.63;;;;;;;-145.18;100.00;60484.78;4895012;29;20043;-66
2023/04/17 10:43:19;;;;;;;15.35;9.63;;;;;;;-145.18;100.00;60484.78;4894128;29;20061;-66
2023/04/17 10:46:13;;;;;;;21.17;10.70;;;;;;;-145.18;100.00;60484.78;4891710;29;20048;-66
2023/04/17 10:48:46;;;;;;;14.05;8.85;;;;;;;-145.18;100.00;60484.78;4892776;29;20127;-67
2023/04/17 10:51:41;;;;;;;13.57;9.38;;;;;;;-145.18;100.00;60484.78;4893711;29;20048;-66
2023/04/17 10:54:09;;;;;;;13.57;9.63;;;;;;;-145.18;100.00;60484.78;4874401;29;20036;-66
2023/04/17 10:56:37;;;;;;;14.57;10.05;;;;;;;-145.18;100.00;60484.78;4891956;29;20462;-67